Time;durP1;ratioP1;P1;durP2;ratioP2;P2;SDS_P1;SDS_P2;PMS_P1;PMS_P2;Temp;Humidity;BMP_temperature;BMP_pressure;BME280_temperature;BME280_humidity;BME280_pressure;Samples;Min_cycle;Max_cycle;Signal;HPM_P1;HPM_P2
2022/10/24 00:01:23;;;;;;;7.53;4.57;;;;;;;17.58;67.79;99865.97;4448046;32;34011;-64
2022/10/24 00:03:51;;;;;;;6.40;5.15;;;;;;;17.77;67.25;99866.81;4452096;32;33865;-63
2022/10/24 00:06:20;;;;;;;9.30;5.43;;;;;;;17.95;66.48;99864.09;4438164;32;33265;-63
2022/10/24 00:08:47;;;;;;;10.93;7.28;;;;;;;17.90;66.60;99861.84;4442520;32;34594;-62
2022/10/24 00:11:21;;;;;;;8.23;4.85;;;;;;;17.84;66.76;99863.31;4428087;32;32330;-65
2022/10/24 00:13:49;;;;;;;12.15;6.50;;;;;;;17.66;67.49;99868.75;4449688;32;34094;-65
2022/10/24 00:16:20;;;;;;;13.15;7.72;;;;;;;17.59;67.82;99865.00;4445660;32;34339;-66
2022/10/24 00:18:48;;;;;;;13.68;6.62;;;;;;;17.37;68.55;99860.91;4438628;32;33639;-64
2022/10/24 00:21:16;;;;;;;11.80;6.68;;;;;;;17.68;67.68;99858.59;4449984;32;33925;-64
2022/10/24 00:23:44;;;;;;;9.07;6.85;;;;;;;17.96;66.61;99863.06;4453272;32;33873;-64
2022/10/24 00:26:11;;;;;;;9.43;5.43;;;;;;;17.81;67.04;99858.22;4437266;32;33613;-65
2022/10/24 00:28:39;;;;;;;10.57;6.97;;;;;;;17.70;67.47;99877.41;4451844;32;33975;-63
2022/10/24 00:31:14;;;;;;;10.10;7.12;;;;;;;17.90;66.67;99859.97;4445904;32;34052;-63
2022/10/24 00:33:42;;;;;;;14.30;6.57;;;;;;;17.86;66.82;99860.47;4453128;32;33688;-64
2022/10/24 00:36:12;;;;;;;13.77;6.40;;;;;;;17.73;67.26;99862.72;4443700;32;34367;-66
2022/10/24 00:38:40;;;;;;;9.98;6.43;;;;;;;17.90;66.58;99854.56;4440839;32;33786;-64
2022/10/24 00:41:13;;;;;;;14.73;6.45;;;;;;;17.76;66.82;99852.41;4436085;32;202262;-65
2022/10/24 00:43:40;;;;;;;11.68;6.85;;;;;;;17.93;66.48;99845.28;4437657;32;32483;-65
2022/10/24 00:46:08;;;;;;;10.65;7.43;;;;;;;18.06;65.97;99848.41;4451542;32;33708;-63
2022/10/24 00:48:39;;;;;;;12.85;8.18;;;;;;;17.56;67.74;99851.75;4451757;32;34053;-63
2022/10/24 00:51:23;;;;;;;12.93;5.93;;;;;;;17.90;66.59;99845.59;4447106;32;34189;-63
2022/10/24 00:53:57;;;;;;;20.92;7.80;;;;;;;17.89;66.39;99847.47;4448821;32;33757;-62
2022/10/24 00:56:37;;;;;;;11.77;5.22;;;;;;;18.10;65.82;99835.38;4437002;32;33286;-62
2022/10/24 00:59:06;;;;;;;8.18;5.25;;;;;;;18.25;65.29;99836.50;4453083;32;33616;-61
2022/10/24 01:01:34;;;;;;;9.32;5.50;;;;;;;18.16;65.08;99832.87;4449656;32;35261;-62
2022/10/24 01:04:02;;;;;;;15.85;6.60;;;;;;;17.84;66.37;99840.81;4450634;32;34545;-64
2022/10/24 01:06:56;;;;;;;10.07;6.85;;;;;;;17.65;67.11;99847.25;4452987;32;34708;-62
2022/10/24 01:10:02;;;;;;;11.07;6.22;;;;;;;17.31;68.58;99845.28;4450394;32;33599;-64
2022/10/24 01:13:05;;;;;;;8.52;6.05;;;;;;;17.49;67.81;99837.12;4434546;32;33549;-65
2022/10/24 01:15:49;;;;;;;10.02;6.22;;;;;;;17.18;69.11;99828.59;4406748;32;31667;-65
2022/10/24 01:18:34;;;;;;;7.32;4.78;;;;;;;17.36;68.33;99831.28;4436832;32;33325;-63
2022/10/24 01:21:25;;;;;;;12.43;8.18;;;;;;;17.37;68.12;99833.84;4439899;32;31404;-63
2022/10/24 01:24:25;;;;;;;11.27;7.00;;;;;;;17.42;68.19;99830.66;4440110;32;34206;-65
2022/10/24 01:27:24;;;;;;;11.60;6.57;;;;;;;16.92;69.93;99845.59;4440236;32;32565;-64
2022/10/24 01:30:05;;;;;;;5.32;4.37;;;;;;;17.22;68.65;99844.34;4439730;32;33117;-66
2022/10/24 01:32:41;;;;;;;12.07;6.60;;;;;;;17.16;68.93;99844.97;4440672;32;33886;-66
2022/10/24 01:35:35;;;;;;;6.60;4.62;;;;;;;17.09;69.31;99861.97;4432112;32;34915;-66
2022/10/24 01:38:10;;;;;;;7.65;5.03;;;;;;;16.81;70.34;99848.50;4430098;32;34295;-63
2022/10/24 01:40:51;;;;;;;11.12;5.85;;;;;;;16.52;71.51;99841.37;4442780;32;33243;-65
2022/10/24 01:43:28;;;;;;;10.27;6.70;;;;;;;16.98;69.78;99836.88;4429931;32;33905;-64
2022/10/24 01:46:04;;;;;;;7.25;6.15;;;;;;;16.86;69.95;99842.66;4447670;32;34190;-67
2022/10/24 01:48:35;;;;;;;12.75;6.32;;;;;;;16.96;69.48;99844.28;4450731;32;33793;-64
2022/10/24 01:51:03;;;;;;;10.48;6.65;;;;;;;16.96;69.35;99832.63;4447889;32;33570;-62
2022/10/24 01:53:31;;;;;;;8.57;5.85;;;;;;;17.02;69.28;99837.41;4433032;32;33869;-64
2022/10/24 01:55:59;;;;;;;8.43;6.03;;;;;;;17.16;68.79;99828.75;4440397;32;33345;-64
2022/10/24 01:58:26;;;;;;;7.30;5.05;;;;;;;17.22;68.53;99824.59;4436598;32;34155;-63
2022/10/24 02:00:57;;;;;;;13.55;7.20;;;;;;;16.99;69.44;99829.59;4448442;32;35406;-63
2022/10/24 02:03:30;;;;;;;10.38;7.30;;;;;;;17.25;68.43;99824.28;4439047;32;33699;-61
2022/10/24 02:06:03;;;;;;;7.78;4.65;;;;;;;17.26;68.12;99811.59;4452351;32;34126;-63
2022/10/24 02:08:35;;;;;;;7.78;4.93;;;;;;;17.34;67.87;99809.81;4451439;32;33877;-62
2022/10/24 02:11:05;;;;;;;8.38;5.82;;;;;;;17.05;68.53;99815.47;4448076;32;34145;-62
2022/10/24 02:14:00;;;;;;;6.57;3.30;;;;;;;17.04;68.63;99804.81;4449905;32;33310;-62
2022/10/24 02:16:28;;;;;;;13.00;7.30;;;;;;;16.87;69.35;99801.94;4440909;32;33708;-62
2022/10/24 02:18:56;;;;;;;10.15;6.75;;;;;;;16.66;70.13;99806.75;4451421;32;33708;-63
2022/10/24 02:21:46;;;;;;;13.95;6.00;;;;;;;16.97;68.91;99794.59;4440515;32;32580;-64
2022/10/24 02:24:27;;;;;;;7.75;5.32;;;;;;;16.39;70.65;99788.72;4449210;32;33741;-62
2022/10/24 02:27:00;;;;;;;9.82;5.68;;;;;;;16.45;70.97;99801.63;4445009;32;34183;-63
2022/10/24 02:30:00;;;;;;;18.42;7.60;;;;;;;16.10;72.18;99791.56;4443416;32;32262;-63
2022/10/24 02:32:34;;;;;;;12.77;6.47;;;;;;;16.39;71.50;99803.06;4438956;32;33572;-61
2022/10/24 02:35:04;;;;;;;8.93;6.57;;;;;;;16.48;70.87;99809.44;4433636;32;33667;-63
2022/10/24 02:37:33;;;;;;;6.07;4.62;;;;;;;16.36;71.45;99802.53;4443628;32;32880;-63
2022/10/24 02:40:02;;;;;;;7.25;4.50;;;;;;;16.17;72.20;99798.06;4440890;32;34943;-62
2022/10/24 02:42:30;;;;;;;7.15;4.97;;;;;;;16.44;71.18;99797.22;4427110;32;33047;-66
2022/10/24 02:44:59;;;;;;;13.35;8.52;;;;;;;15.98;72.72;99793.59;4433928;32;34635;-62
2022/10/24 02:47:27;;;;;;;10.48;6.00;;;;;;;16.39;71.19;99804.94;4436162;32;32446;-63
2022/10/24 02:49:55;;;;;;;9.95;5.45;;;;;;;16.42;71.01;99807.31;4450349;32;35222;-64
2022/10/24 02:52:22;;;;;;;12.73;5.90;;;;;;;16.52;70.50;99814.38;4451921;32;34932;-63
2022/10/24 02:54:50;;;;;;;11.38;5.85;;;;;;;16.49;70.66;99816.53;4448665;32;33907;-63
2022/10/24 02:57:20;;;;;;;15.80;7.68;;;;;;;16.81;69.30;99809.81;4439875;32;32607;-66
2022/10/24 02:59:48;;;;;;;8.82;6.40;;;;;;;16.80;69.34;99800.00;4450342;32;35538;-64
2022/10/24 03:02:15;;;;;;;13.02;7.72;;;;;;;16.70;69.90;99800.06;4450549;32;33944;-64
2022/10/24 03:04:43;;;;;;;10.27;6.35;;;;;;;16.54;70.39;99795.31;4431678;32;33219;-65
2022/10/24 03:07:11;;;;;;;10.35;7.85;;;;;;;16.94;68.70;99786.78;4447856;32;34905;-68
2022/10/24 03:09:38;;;;;;;15.85;6.97;;;;;;;16.63;69.79;99780.91;4451387;32;33779;-67
2022/10/24 03:12:06;;;;;;;13.70;7.12;;;;;;;16.45;70.53;99774.59;4451598;32;34587;-66
2022/10/24 03:14:33;;;;;;;7.82;4.75;;;;;;;16.22;71.19;99780.41;4447988;32;33615;-66
2022/10/24 03:17:01;;;;;;;11.15;5.35;;;;;;;16.37;71.24;99772.69;4450124;32;33068;-65
2022/10/24 03:19:28;;;;;;;9.52;5.93;;;;;;;16.23;71.77;99767.75;4449957;32;34003;-66
2022/10/24 03:21:56;;;;;;;11.18;7.43;;;;;;;15.74;74.06;99767.13;4449833;32;32086;-65
2022/10/24 03:24:23;;;;;;;10.93;7.28;;;;;;;16.02;72.87;99768.03;4449965;32;33480;-64
2022/10/24 03:27:11;;;;;;;11.45;8.75;;;;;;;15.74;73.78;99775.22;4445289;32;34868;-65
2022/10/24 03:29:38;;;;;;;10.30;5.57;;;;;;;16.34;71.75;99772.97;4444542;32;33744;-64
2022/10/24 03:32:06;;;;;;;10.77;6.18;;;;;;;16.54;70.57;99769.16;4449538;32;33352;-64
2022/10/24 03:34:33;;;;;;;9.23;6.55;;;;;;;16.46;70.88;99787.09;4441785;32;33453;-64
2022/10/24 03:37:01;;;;;;;25.80;14.32;;;;;;;16.67;69.96;99781.44;4445075;32;33967;-64
2022/10/24 03:39:28;;;;;;;10.15;5.12;;;;;;;16.68;70.06;99783.12;4439907;32;35146;-64
2022/10/24 03:41:56;;;;;;;9.13;5.25;;;;;;;16.60;70.16;99778.50;4445096;32;33844;-64
2022/10/24 03:44:23;;;;;;;9.10;5.87;;;;;;;16.34;71.11;99775.69;4447593;32;34591;-64
2022/10/24 03:46:51;;;;;;;12.27;8.73;;;;;;;16.36;70.91;99781.75;4449069;32;32841;-64
2022/10/24 03:49:18;;;;;;;12.13;6.87;;;;;;;16.10;72.16;99783.47;4446698;32;34824;-64
2022/10/24 03:51:46;;;;;;;7.53;5.12;;;;;;;16.29;71.32;99783.38;4448383;32;35052;-63
2022/10/24 03:54:14;;;;;;;13.00;7.03;;;;;;;16.26;71.41;99786.38;4452636;32;32865;-65
2022/10/24 03:56:42;;;;;;;16.30;8.30;;;;;;;16.04;72.35;99793.00;4453494;32;34003;-64
2022/10/24 03:59:10;;;;;;;11.82;6.10;;;;;;;16.19;71.67;99796.06;4444362;32;33716;-65
2022/10/24 04:01:37;;;;;;;8.07;6.03;;;;;;;16.34;71.30;99797.28;4446688;32;33557;-64
2022/10/24 04:04:05;;;;;;;9.93;6.32;;;;;;;16.47;70.98;99797.78;4441781;32;32521;-64
2022/10/24 04:06:33;;;;;;;8.35;5.53;;;;;;;16.61;70.15;99796.41;4441067;32;35215;-63
2022/10/24 04:09:03;;;;;;;11.10;7.72;;;;;;;16.71;69.55;99805.28;4451149;32;33861;-64
2022/10/24 04:11:31;;;;;;;14.80;6.90;;;;;;;16.81;68.99;99807.12;4452066;32;32229;-65
2022/10/24 04:13:59;;;;;;;9.20;5.53;;;;;;;16.80;69.08;99800.00;4444726;32;33651;-64
2022/10/24 04:16:33;;;;;;;13.00;5.93;;;;;;;16.71;69.17;99797.19;4450277;32;32876;-64
2022/10/24 04:19:01;;;;;;;10.80;6.40;;;;;;;16.68;69.22;99792.06;4447102;32;35169;-63
2022/10/24 04:21:28;;;;;;;7.28;4.32;;;;;;;16.76;68.74;99788.66;4438295;32;31974;-63
2022/10/24 04:23:56;;;;;;;8.43;5.60;;;;;;;16.41;69.94;99784.03;4451695;32;34043;-64
2022/10/24 04:26:24;;;;;;;9.30;5.97;;;;;;;16.40;70.20;99788.56;4451971;32;32889;-63
2022/10/24 04:28:51;;;;;;;12.65;6.43;;;;;;;16.20;70.64;99785.13;4451781;32;35134;-65
2022/10/24 04:31:19;;;;;;;9.80;6.97;;;;;;;16.25;70.71;99785.53;4449638;32;33586;-64
2022/10/24 04:33:50;;;;;;;7.22;5.53;;;;;;;16.35;70.09;99790.03;4443003;32;34871;-64
2022/10/24 04:36:17;;;;;;;6.30;4.30;;;;;;;16.19;70.66;99780.72;4449652;32;34005;-64
2022/10/24 04:38:45;;;;;;;8.75;6.12;;;;;;;16.11;70.65;99780.59;4452703;32;33980;-64
2022/10/24 04:41:14;;;;;;;12.82;8.00;;;;;;;16.49;69.35;99779.53;4452445;32;32723;-63
2022/10/24 04:43:41;;;;;;;7.43;5.72;;;;;;;15.77;71.78;99777.63;4452951;32;35000;-64
2022/10/24 04:46:11;;;;;;;7.30;4.57;;;;;;;16.09;70.86;99779.94;4448346;32;33715;-65
2022/10/24 04:48:38;;;;;;;6.55;4.97;;;;;;;15.87;71.88;99770.34;4448916;32;34987;-65
2022/10/24 04:51:06;;;;;;;11.90;6.78;;;;;;;15.95;71.46;99761.50;4452109;32;33400;-66
2022/10/24 04:53:33;;;;;;;9.52;6.53;;;;;;;15.98;71.07;99761.19;4451611;32;34965;-66
2022/10/24 04:56:01;;;;;;;7.80;4.18;;;;;;;15.90;71.56;99753.00;4451075;32;33874;-65
2022/10/24 04:58:28;;;;;;;13.10;7.50;;;;;;;15.86;71.66;99756.97;4445160;32;33846;-66
2022/10/24 05:00:56;;;;;;;12.98;7.10;;;;;;;15.90;71.75;99763.81;4443708;32;33505;-65
2022/10/24 05:03:23;;;;;;;8.80;5.43;;;;;;;15.54;73.42;99766.31;4451294;32;35465;-65
2022/10/24 05:05:51;;;;;;;13.82;6.82;;;;;;;15.74;72.65;99757.19;4450967;32;35315;-67
2022/10/24 05:08:18;;;;;;;11.20;7.28;;;;;;;15.54;73.00;99772.56;4451868;32;33627;-66
2022/10/24 05:10:46;;;;;;;9.68;6.40;;;;;;;15.60;72.93;99782.75;4447917;32;33122;-64
2022/10/24 05:13:14;;;;;;;11.12;7.12;;;;;;;15.91;72.01;99800.59;4442000;32;34825;-64
2022/10/24 05:15:42;;;;;;;8.60;5.82;;;;;;;15.75;72.45;99785.88;4451878;32;33754;-66
2022/10/24 05:18:10;;;;;;;11.45;7.55;;;;;;;15.68;72.82;99797.41;4448222;32;35044;-65
2022/10/24 05:20:37;;;;;;;11.90;6.75;;;;;;;16.14;70.83;99796.50;4444244;32;33647;-64
2022/10/24 05:23:05;;;;;;;25.60;9.00;;;;;;;16.21;70.32;99805.75;4451967;32;32671;-64
2022/10/24 05:25:32;;;;;;;17.83;8.68;;;;;;;15.96;71.37;99807.25;4448482;32;34894;-67
2022/10/24 05:28:00;;;;;;;11.45;7.90;;;;;;;16.23;70.08;99819.91;4450379;32;34845;-65
2022/10/24 05:30:28;;;;;;;8.25;6.55;;;;;;;16.45;69.29;99815.97;4444796;32;32127;-67
2022/10/24 05:32:56;;;;;;;12.23;7.68;;;;;;;16.70;68.34;99816.28;4451014;32;35099;-67
2022/10/24 05:35:23;;;;;;;12.02;7.45;;;;;;;16.87;67.62;99812.75;4449878;32;33577;-66
2022/10/24 05:37:51;;;;;;;15.75;7.20;;;;;;;16.67;67.90;99812.00;4441574;32;33842;-65
2022/10/24 05:40:19;;;;;;;9.52;6.50;;;;;;;16.80;67.50;99811.66;4450759;32;33597;-64
2022/10/24 05:42:47;;;;;;;17.25;7.95;;;;;;;17.14;66.28;99811.84;4449386;32;33207;-65
2022/10/24 05:45:15;;;;;;;15.70;7.62;;;;;;;17.29;65.79;99827.50;4450262;32;32796;-65
2022/10/24 05:47:42;;;;;;;11.90;5.97;;;;;;;17.33;65.62;99834.31;4449969;32;33570;-66
2022/10/24 05:50:10;;;;;;;11.57;6.90;;;;;;;17.33;65.49;99839.72;4453296;32;32238;-64
2022/10/24 05:52:41;;;;;;;25.62;9.55;;;;;;;17.07;66.08;99835.09;4445116;32;34834;-64
2022/10/24 05:55:13;;;;;;;13.90;6.62;;;;;;;17.47;64.69;99839.16;4446416;32;34059;-65
2022/10/24 05:57:45;;;;;;;17.73;8.30;;;;;;;17.50;64.67;99851.53;4450615;32;33964;-65
2022/10/24 06:00:15;;;;;;;15.38;6.93;;;;;;;17.53;64.54;99849.37;4449530;32;33059;-65
2022/10/24 06:02:43;;;;;;;17.25;9.15;;;;;;;17.37;65.03;99841.97;4447433;32;33994;-67
2022/10/24 06:05:11;;;;;;;19.37;9.38;;;;;;;17.28;65.33;99842.06;4450033;32;33948;-66
2022/10/24 06:07:40;;;;;;;16.73;11.07;;;;;;;17.08;66.07;99846.75;4439850;32;33442;-64
2022/10/24 06:10:10;;;;;;;12.57;7.00;;;;;;;16.68;67.64;99839.88;4451034;32;33311;-65
2022/10/24 06:12:38;;;;;;;20.17;9.85;;;;;;;16.79;67.40;99828.91;4434456;32;33981;-65
2022/10/24 06:15:08;;;;;;;11.27;7.60;;;;;;;16.46;68.68;99824.94;4450969;32;35069;-64
2022/10/24 06:17:35;;;;;;;15.35;9.02;;;;;;;16.33;69.17;99821.72;4445941;32;34722;-63
2022/10/24 06:20:03;;;;;;;11.55;7.70;;;;;;;16.08;70.46;99834.91;4452537;32;33493;-66
2022/10/24 06:22:31;;;;;;;13.32;7.82;;;;;;;16.06;70.03;99823.41;4441510;32;33972;-65
2022/10/24 06:24:59;;;;;;;15.93;9.77;;;;;;;16.20;69.96;99820.22;4448181;32;34096;-66
2022/10/24 06:27:27;;;;;;;14.40;7.90;;;;;;;15.95;71.21;99819.03;4449475;32;33328;-66
2022/10/24 06:29:54;;;;;;;8.70;6.75;;;;;;;16.44;69.15;99813.44;4450960;32;33188;-66
2022/10/24 06:32:22;;;;;;;15.65;8.60;;;;;;;15.37;73.71;99811.88;4446883;32;34491;-67
2022/10/24 06:34:50;;;;;;;19.15;7.47;;;;;;;15.26;74.64;99816.59;4448991;32;34877;-64
2022/10/24 06:37:17;;;;;;;20.37;10.57;;;;;;;15.36;73.99;99820.13;4446520;32;33882;-64
2022/10/24 06:39:45;;;;;;;23.58;8.40;;;;;;;15.37;74.44;99819.97;4447226;32;34189;-67
2022/10/24 06:42:12;;;;;;;23.70;11.73;;;;;;;15.70;72.99;99828.63;4451217;32;33833;-65
2022/10/24 06:44:40;;;;;;;19.92;10.38;;;;;;;15.93;71.93;99812.09;4451995;32;34182;-66
2022/10/24 06:47:08;;;;;;;16.50;8.70;;;;;;;15.25;74.56;99798.69;4448586;32;33727;-66
2022/10/24 06:49:35;;;;;;;21.77;8.63;;;;;;;15.40;74.40;99809.91;4445220;32;34079;-65
2022/10/24 06:52:03;;;;;;;17.05;10.25;;;;;;;15.31;74.90;99822.41;4451583;32;32774;-65
2022/10/24 06:54:32;;;;;;;12.30;9.90;;;;;;;15.30;74.95;99818.00;4438679;32;34136;-66
2022/10/24 06:57:00;;;;;;;18.90;9.40;;;;;;;15.64;73.51;99814.84;4444356;32;34895;-66
2022/10/24 06:59:27;;;;;;;22.92;9.20;;;;;;;15.15;75.46;99814.88;4453042;32;32272;-68
2022/10/24 07:01:55;;;;;;;27.90;12.00;;;;;;;15.72;73.01;99817.69;4446420;32;32615;-66
2022/10/24 07:04:29;;;;;;;21.37;10.80;;;;;;;14.97;76.55;99825.53;4450681;32;33981;-66
2022/10/24 07:06:57;;;;;;;24.15;10.90;;;;;;;15.13;75.51;99836.59;4451874;32;33667;-65
2022/10/24 07:09:25;;;;;;;17.50;9.95;;;;;;;15.35;74.98;99838.16;4452379;32;33448;-66
2022/10/24 07:11:52;;;;;;;13.02;9.23;;;;;;;15.17;75.31;99853.34;4448604;32;34661;-67
2022/10/24 07:14:20;;;;;;;24.80;12.88;;;;;;;15.52;74.15;99868.09;4450610;32;32936;-68
2022/10/24 07:16:47;;;;;;;33.83;11.50;;;;;;;15.76;72.94;99863.16;4442844;32;33668;-66
2022/10/24 07:19:15;;;;;;;21.05;10.70;;;;;;;15.91;72.27;99858.13;4440988;32;32990;-66
2022/10/24 07:21:43;;;;;;;17.27;11.15;;;;;;;15.70;72.90;99861.03;4449113;32;36054;-66
2022/10/24 07:24:11;;;;;;;18.12;10.38;;;;;;;16.17;71.15;99852.06;4448367;32;33052;-66
2022/10/24 07:26:39;;;;;;;22.10;12.70;;;;;;;15.80;72.73;99866.41;4451348;32;33246;-68
2022/10/24 07:29:07;;;;;;;11.12;6.97;;;;;;;16.18;71.16;99864.56;4448455;32;34103;-66
2022/10/24 07:31:35;;;;;;;20.95;10.40;;;;;;;16.18;70.98;99865.44;4449648;32;35080;-65
2022/10/24 07:34:05;;;;;;;19.48;11.18;;;;;;;16.18;70.90;99859.16;4435960;32;33976;-68
2022/10/24 07:36:33;;;;;;;24.23;12.27;;;;;;;16.02;71.59;99846.31;4448774;32;33340;-66
2022/10/24 07:39:00;;;;;;;25.62;12.18;;;;;;;16.16;71.36;99863.87;4450156;32;33157;-65
2022/10/24 07:41:30;;;;;;;23.87;11.38;;;;;;;16.41;70.12;99855.09;4448500;32;33781;-67
2022/10/24 07:43:58;;;;;;;26.00;11.38;;;;;;;16.13;71.41;99864.19;4447643;32;35152;-67
2022/10/24 07:46:26;;;;;;;21.12;10.52;;;;;;;16.22;70.79;99864.13;4442570;32;34408;-66
2022/10/24 07:48:53;;;;;;;21.48;11.15;;;;;;;16.21;70.97;99869.66;4450278;32;32154;-67
2022/10/24 07:51:21;;;;;;;19.90;11.38;;;;;;;16.13;71.56;99873.13;4447929;32;33782;-65
2022/10/24 07:53:49;;;;;;;15.35;9.15;;;;;;;16.24;71.35;99875.66;4446870;32;32938;-65
2022/10/24 07:56:17;;;;;;;18.17;8.73;;;;;;;15.67;73.63;99882.06;4446605;32;33915;-67
2022/10/24 07:58:45;;;;;;;24.05;11.32;;;;;;;16.27;71.18;99882.59;4446996;32;34101;-65
2022/10/24 08:01:14;;;;;;;22.37;7.78;;;;;;;16.39;70.37;99876.00;4443193;32;33895;-65
2022/10/24 08:03:42;;;;;;;20.88;12.50;;;;;;;16.75;69.27;99881.53;4448249;32;34107;-65
2022/10/24 08:06:13;;;;;;;38.67;11.95;;;;;;;16.40;70.17;99879.53;4447584;32;33563;-66
2022/10/24 08:08:41;;;;;;;18.75;8.65;;;;;;;16.65;69.38;99886.13;4449143;32;33427;-67
2022/10/24 08:11:14;;;;;;;25.30;12.10;;;;;;;16.77;68.53;99883.09;4449615;32;33474;-65
2022/10/24 08:13:42;;;;;;;21.30;9.13;;;;;;;16.53;69.90;99872.81;4443236;32;35104;-68
2022/10/24 08:16:11;;;;;;;23.50;11.65;;;;;;;16.80;68.86;99870.28;4446451;32;33649;-65
2022/10/24 08:18:39;;;;;;;23.27;11.15;;;;;;;16.55;69.59;99859.16;4448728;32;34597;-65
2022/10/24 08:21:08;;;;;;;19.42;9.13;;;;;;;16.49;69.99;99854.34;4448957;32;34040;-66
2022/10/24 08:23:39;;;;;;;26.65;14.00;;;;;;;16.34;70.07;99858.53;4428370;32;32377;-66
2022/10/24 08:26:07;;;;;;;24.60;12.32;;;;;;;16.62;69.64;99859.41;4448910;32;34845;-66
2022/10/24 08:28:35;;;;;;;36.42;17.20;;;;;;;16.11;71.30;99863.47;4449094;32;34347;-67
2022/10/24 08:31:05;;;;;;;25.40;10.38;;;;;;;15.55;73.21;99857.88;4446012;32;33842;-67
2022/10/24 08:33:33;;;;;;;18.92;10.52;;;;;;;15.91;72.44;99852.72;4446943;32;33758;-66
2022/10/24 08:36:04;;;;;;;20.62;9.80;;;;;;;16.24;71.01;99851.34;4450164;32;33746;-66
2022/10/24 08:38:32;;;;;;;21.98;10.25;;;;;;;16.37;70.42;99848.31;4449725;32;32394;-65
2022/10/24 08:41:00;;;;;;;26.50;12.23;;;;;;;15.44;73.64;99849.94;4449090;32;35053;-66
2022/10/24 08:43:27;;;;;;;28.67;9.75;;;;;;;15.02;76.46;99850.22;4450546;32;34916;-64
2022/10/24 08:46:36;;;;;;;22.92;12.43;;;;;;;15.42;74.62;99848.37;4445584;32;32569;-66
2022/10/24 08:49:33;;;;;;;25.08;12.65;;;;;;;15.50;74.39;99838.56;4452671;32;35240;-66
2022/10/24 08:52:05;;;;;;;15.48;10.85;;;;;;;15.21;76.23;99843.97;4441672;32;33577;-64
2022/10/24 08:54:38;;;;;;;24.55;10.40;;;;;;;15.48;74.94;99834.34;4432271;32;35147;-66
2022/10/24 08:57:21;;;;;;;30.05;9.15;;;;;;;15.88;73.01;99822.47;4446590;32;34047;-64
2022/10/24 08:59:51;;;;;;;20.70;10.45;;;;;;;16.32;71.59;99834.37;4448930;32;34293;-64
2022/10/24 09:02:22;;;;;;;16.58;8.27;;;;;;;16.29;71.66;99834.69;4443055;32;33661;-67
2022/10/24 09:05:23;;;;;;;27.65;14.15;;;;;;;16.49;70.65;99838.97;4443414;32;35032;-64
2022/10/24 09:07:55;;;;;;;19.85;10.93;;;;;;;16.09;71.91;99833.06;4444437;32;34768;-65
2022/10/24 09:10:41;;;;;;;16.55;8.38;;;;;;;15.91;73.04;99843.78;4448845;32;34696;-65
2022/10/24 09:13:13;;;;;;;31.20;16.15;;;;;;;16.41;71.14;99835.34;4451262;32;35415;-64
2022/10/24 09:15:42;;;;;;;23.35;11.70;;;;;;;16.33;71.20;99836.09;4447335;32;34030;-65
2022/10/24 09:18:21;;;;;;;27.98;12.15;;;;;;;16.74;69.81;99834.72;4449678;32;34060;-65
2022/10/24 09:20:50;;;;;;;21.00;11.55;;;;;;;16.69;70.01;99838.88;4450774;32;32279;-67
2022/10/24 09:23:19;;;;;;;17.92;9.68;;;;;;;17.00;68.79;99837.56;4441655;32;33666;-65
2022/10/24 09:25:48;;;;;;;21.30;11.65;;;;;;;16.79;69.34;99836.13;4449616;32;32666;-65
2022/10/24 09:28:16;;;;;;;22.95;11.00;;;;;;;16.59;69.93;99844.31;4448165;32;33088;-65
2022/10/24 09:30:45;;;;;;;19.87;10.02;;;;;;;16.54;70.17;99844.78;4443489;32;34908;-64
2022/10/24 09:33:33;;;;;;;20.27;9.32;;;;;;;16.84;69.04;99850.06;4441709;32;33766;-64
2022/10/24 09:36:03;;;;;;;29.65;14.98;;;;;;;16.74;69.32;99856.34;4448141;32;34051;-66
2022/10/24 09:38:39;;;;;;;29.85;11.12;;;;;;;16.89;68.51;99869.38;4449211;32;32288;-66
2022/10/24 09:41:19;;;;;;;15.48;8.02;;;;;;;16.89;69.07;99870.22;4449193;32;33286;-66
2022/10/24 09:43:49;;;;;;;17.60;11.30;;;;;;;16.74;69.45;99871.72;4441894;32;32871;-64
2022/10/24 09:46:28;;;;;;;28.40;14.23;;;;;;;16.94;68.58;99880.56;4451037;32;33182;-65
2022/10/24 09:49:14;;;;;;;18.67;10.48;;;;;;;17.04;68.37;99878.66;4446907;32;34773;-65
2022/10/24 09:52:05;;;;;;;18.42;9.73;;;;;;;17.15;67.92;99878.44;4452419;32;32035;-66
2022/10/24 09:54:34;;;;;;;15.50;8.43;;;;;;;17.29;67.29;99871.63;4445069;32;34896;-66
2022/10/24 09:57:11;;;;;;;25.80;12.23;;;;;;;17.36;66.92;99867.31;4451701;32;35602;-65
2022/10/24 09:59:57;;;;;;;18.08;12.10;;;;;;;17.38;66.92;99868.00;4450193;32;33803;-66
2022/10/24 10:02:27;;;;;;;25.30;11.68;;;;;;;17.41;67.00;99875.81;4447271;32;33462;-65
2022/10/24 10:05:00;;;;;;;20.00;10.85;;;;;;;17.41;66.67;99858.72;4447487;32;33141;-65
2022/10/24 10:07:34;;;;;;;;;;;;;;;17.14;67.63;99855.13;4451460;32;35007;-65
2022/10/24 10:10:23;;;;;;;17.75;10.60;;;;;;;17.17;67.75;99862.03;4433389;32;34147;-65
2022/10/24 10:13:13;;;;;;;12.90;6.87;;;;;;;17.25;67.62;99861.28;4449585;32;33272;-64
2022/10/24 10:15:52;;;;;;;15.27;9.57;;;;;;;17.06;68.73;99854.19;4449033;32;33158;-65
2022/10/24 10:18:23;;;;;;;15.63;8.10;;;;;;;17.33;68.04;99850.53;4449560;32;32717;-66
2022/10/24 10:21:01;;;;;;;13.77;8.70;;;;;;;17.45;67.75;99852.84;4438166;32;35161;-66
2022/10/24 10:23:32;;;;;;;15.32;7.32;;;;;;;17.61;66.85;99846.72;4449701;32;34540;-66
2022/10/24 10:26:31;;;;;;;18.77;8.95;;;;;;;17.37;67.88;99850.09;4447032;32;33941;-69
2022/10/24 10:29:18;;;;;;;16.77;9.68;;;;;;;17.60;67.32;99846.88;4436645;32;33716;-64
2022/10/24 10:31:49;;;;;;;11.30;7.22;;;;;;;17.84;66.54;99838.09;4444613;32;33856;-66
2022/10/24 10:34:21;;;;;;;9.95;6.55;;;;;;;17.85;66.62;99842.53;4447497;32;34250;-66
2022/10/24 10:37:27;;;;;;;12.05;7.37;;;;;;;17.78;66.76;99841.44;4439112;32;32886;-65
2022/10/24 10:40:31;;;;;;;12.48;7.32;;;;;;;17.99;66.29;99839.22;4450639;32;33984;-65
2022/10/24 10:43:14;;;;;;;11.80;8.02;;;;;;;18.12;66.10;99841.50;4418400;32;34517;-65
2022/10/24 10:45:55;;;;;;;19.12;9.45;;;;;;;18.18;66.14;99832.72;4447890;32;33226;-66
2022/10/24 10:48:37;;;;;;;17.42;9.15;;;;;;;17.73;66.97;99831.06;4451424;32;36029;-64
2022/10/24 10:51:20;;;;;;;9.85;6.82;;;;;;;17.64;67.81;99838.28;4447235;32;32788;-64
2022/10/24 10:53:59;;;;;;;19.30;9.05;;;;;;;17.53;67.50;99825.03;4444583;32;33632;-64
2022/10/24 10:56:32;;;;;;;37.80;11.85;;;;;;;17.64;67.44;99823.91;4443664;32;33411;-66
2022/10/24 10:59:25;;;;;;;21.73;10.65;;;;;;;17.65;67.15;99826.44;4447680;32;34976;-65
2022/10/24 11:02:14;;;;;;;29.55;11.32;;;;;;;17.84;66.57;99821.88;4444455;32;32849;-64
2022/10/24 11:05:05;;;;;;;18.80;8.70;;;;;;;17.83;66.79;99812.91;4443800;32;33630;-66
2022/10/24 11:07:47;;;;;;;13.50;7.75;;;;;;;17.87;66.61;99816.13;4443517;32;34442;-65
2022/10/24 11:10:20;;;;;;;17.90;8.18;;;;;;;17.95;66.29;99818.91;4446037;32;32684;-66
2022/10/24 11:12:47;;;;;;;14.05;7.68;;;;;;;17.80;66.39;99815.91;4449572;32;35344;-64
2022/10/24 11:15:18;;;;;;;22.70;8.77;;;;;;;18.04;65.42;99812.53;4448039;32;34250;-64
2022/10/24 11:18:09;;;;;;;17.90;8.15;;;;;;;17.80;66.01;99815.06;4442944;32;32473;-70
2022/10/24 11:20:41;;;;;;;12.57;6.82;;;;;;;17.95;65.63;99818.06;4442942;32;32869;-68
2022/10/24 11:23:09;;;;;;;17.02;9.15;;;;;;;18.20;64.86;99827.13;4446441;32;33170;-65
2022/10/24 11:25:57;;;;;;;13.48;7.80;;;;;;;18.27;64.50;99823.63;4442575;32;33253;-67
2022/10/24 11:28:35;;;;;;;19.95;10.60;;;;;;;18.37;64.12;99818.94;4435237;32;34565;-65
2022/10/24 11:31:07;;;;;;;11.00;6.47;;;;;;;18.45;63.94;99811.84;4443272;32;35004;-66
2022/10/24 11:33:42;;;;;;;10.45;6.68;;;;;;;18.58;63.43;99812.22;4447571;32;32938;-65
2022/10/24 11:36:39;;;;;;;15.15;7.30;;;;;;;18.57;63.33;99813.25;4434576;32;34866;-65
2022/10/24 11:39:17;;;;;;;18.80;9.30;;;;;;;18.49;63.59;99815.91;4447559;32;33269;-64
2022/10/24 11:41:52;;;;;;;14.55;8.43;;;;;;;18.71;63.01;99809.87;4449665;32;32690;-63
2022/10/24 11:45:09;;;;;;;14.90;7.68;;;;;;;18.74;62.67;99815.00;4444475;32;32592;-65
2022/10/24 11:47:48;;;;;;;19.85;9.73;;;;;;;17.90;64.47;99813.94;4425840;32;32044;-65
2022/10/24 11:50:47;;;;;;;17.77;9.48;;;;;;;18.55;62.79;99807.97;4447807;32;34001;-64